Flight Track Log - Related Links

Times and Time Zones

All times are in EDT time to prevent confusion due to time zone crossing. See the CSN6867 flight status page for this flight to view local times or setup timezone preferences in your user account.

Time Position Orientation Groundspeed Altitude Reporting Facility
EDT Latitude Longitude Course Direction KTS MPH feet Rate Location/Type
10:41AM 42.7559 84.1204 246° West  Level Estimated
10:42AM 42.7097 83.9940 244° Southwest  Level Estimated
10:43AM 42.6634 83.8677 244° Southwest  Level Estimated
10:44AM 42.6169 83.7416 243° Southwest  Level Estimated
10:45AM 42.5703 83.6157 243° Southwest  Level Estimated
10:46AM 42.5235 83.4900 243° Southwest  Level Estimated
10:47AM 42.4766 83.3645 243° Southwest  Level Estimated
10:48AM 42.4296 83.2392 243° Southwest  Level Estimated
10:49AM 42.3824 83.1141 243° Southwest  Level Estimated
10:50AM 42.3351 82.9891 243° Southwest  Level Estimated
10:51AM 42.2877 82.8644 243° Southwest  Level Estimated
10:52AM 42.2401 82.7398 243° Southwest  Level Estimated
10:53AM 42.1924 82.6154 243° Southwest  Level Estimated
10:54AM 42.1445 82.4912 243° Southwest  Level Estimated
10:55AM 42.0966 82.3672 242° Southwest  Level Estimated
10:56AM 42.0485 82.2434 242° Southwest  Level Estimated
10:57AM 42.0002 82.1198 242° Southwest  Level Estimated
10:58AM 41.9518 81.9963 242° Southwest  Level Estimated
10:59AM 41.9033 81.8731 242° Southwest  Level Estimated
11:00AM 41.8547 81.7500 242° Southwest  Level Estimated
11:01AM 41.8059 81.6271 242° Southwest  Level Estimated
11:02AM 41.7570 81.5044 242° Southwest  Level Estimated
11:03AM 41.7080 81.3819 242° Southwest  Level Estimated
11:04AM 41.6588 81.2596 242° Southwest  Level Estimated
11:05AM 41.6095 81.1375 242° Southwest  Level Estimated
11:06AM 41.5601 81.0155 242° Southwest  Level Estimated
11:07AM 41.5106 80.8938 242° Southwest  Level Estimated
11:08AM 41.4609 80.7722 241° Southwest  Level Estimated
11:09AM 41.4111 80.6508 241° Southwest  Level Estimated
11:10AM 41.3611 80.5296 241° Southwest  Level Estimated
11:11AM 41.3111 80.4086 241° Southwest  Level Estimated
11:12AM 41.2625 80.2917 241° Southwest  Level Estimated
11:13AM 41.2625 80.2917 North  Level Estimated
11:14AM 41.2625 80.2917 North  Level Estimated
11:15AM 41.2625 80.2917 North  Level Estimated
11:16AM 41.2625 80.2917 North  Level Estimated
11:17AM 41.2625 80.2917 North  Level Estimated
11:18AM 41.2625 80.2917 North  Level Estimated
11:19AM 41.2625 80.2917 North  Level Estimated
11:20AM 41.2625 80.2917 North  Level Estimated
11:21AM 41.2625 80.2917 North  Level Estimated
11:22AM 41.2625 80.2917 North  Level Estimated
11:23AM 41.2625 80.2917 North  Level Estimated

Login

Don't have an account? Register now (free) for customized features, flight alerts, and more!